createdAt,value
2023-05-07T00:01:00.740Z,93.60
2023-05-07T00:03:32.417Z,93.54
2023-05-07T00:06:04.328Z,93.20
2023-05-07T00:08:35.580Z,93.81
2023-05-07T00:11:06.953Z,93.55
2023-05-07T00:13:38.294Z,93.60
2023-05-07T00:16:09.732Z,93.87
2023-05-07T00:18:41.125Z,93.09
2023-05-07T00:21:12.541Z,93.23
2023-05-07T00:23:43.802Z,93.52
2023-05-07T00:26:15.067Z,93.07
2023-05-07T00:28:46.425Z,93.46
2023-05-07T00:31:17.782Z,93.08
2023-05-07T00:33:49.062Z,93.68
2023-05-07T00:36:20.345Z,93.30
2023-05-07T00:38:51.629Z,93.45
2023-05-07T00:41:23.466Z,93.70
2023-05-07T00:43:54.724Z,93.69
2023-05-07T00:46:26.878Z,93.78
2023-05-07T00:48:58.923Z,93.05
2023-05-07T00:51:31.630Z,93.51
2023-05-07T00:54:04.043Z,93.20
2023-05-07T00:56:35.718Z,93.08
2023-05-07T00:59:07.292Z,93.18
2023-05-07T01:01:38.787Z,93.19
2023-05-07T01:04:10.295Z,93.29
2023-05-07T01:06:42.633Z,93.02
2023-05-07T01:09:14.936Z,93.26
2023-05-07T01:11:47.120Z,93.54
2023-05-07T01:14:19.345Z,92.87
2023-05-07T01:16:52.013Z,93.29
2023-05-07T01:19:23.473Z,93.04
2023-05-07T01:22:03.423Z,93.41
2023-05-07T01:24:37.281Z,93.58
2023-05-07T01:27:08.570Z,93.63
2023-05-07T01:29:39.944Z,93.04
2023-05-07T01:32:12.607Z,93.26
2023-05-07T01:34:47.338Z,93.50
2023-05-07T01:37:18.643Z,93.43
2023-05-07T01:39:49.992Z,93.38
2023-05-07T01:42:22.483Z,93.08
2023-05-07T01:44:53.783Z,93.44
2023-05-07T01:47:26.346Z,93.01
2023-05-07T01:49:58.887Z,93.20
2023-05-07T01:52:30.230Z,93.61
2023-05-07T01:55:01.514Z,93.05
2023-05-07T01:57:32.860Z,93.27
2023-05-07T02:00:06.027Z,93.41
2023-05-07T02:02:39.121Z,93.23
2023-05-07T02:05:10.917Z,92.93
2023-05-07T02:07:42.357Z,93.64
2023-05-07T02:10:13.908Z,93.41
2023-05-07T02:12:45.611Z,93.09
2023-05-07T02:15:17.020Z,93.29
2023-05-07T02:18:05.053Z,93.35
2023-05-07T02:20:36.537Z,93.25
2023-05-07T02:23:07.962Z,93.44
2023-05-07T02:25:39.292Z,92.97
2023-05-07T02:28:10.620Z,92.75
2023-05-07T02:30:42.053Z,92.65
2023-05-07T02:33:14.885Z,92.83
2023-05-07T02:35:46.294Z,93.20
2023-05-07T02:38:17.630Z,92.73
2023-05-07T02:40:48.978Z,93.05
2023-05-07T02:43:20.255Z,92.75
2023-05-07T02:46:02.668Z,92.55
2023-05-07T02:48:34.372Z,92.86
2023-05-07T02:51:06.472Z,92.40
2023-05-07T02:53:37.781Z,92.03
2023-05-07T02:56:09.101Z,92.22
2023-05-07T02:58:40.603Z,92.68
2023-05-07T03:01:12.343Z,92.24
2023-05-07T03:03:43.751Z,92.46
2023-05-07T03:06:15.056Z,92.29
2023-05-07T03:08:46.313Z,92.17
2023-05-07T03:11:17.672Z,92.48
2023-05-07T03:13:50.409Z,92.52
2023-05-07T03:16:21.767Z,91.81
2023-05-07T03:18:53.156Z,92.12
2023-05-07T03:21:24.584Z,92.29
2023-05-07T03:23:55.926Z,91.97
2023-05-07T03:26:27.292Z,91.87
2023-05-07T03:28:58.551Z,92.19
2023-05-07T03:31:29.993Z,92.21
2023-05-07T03:34:01.302Z,91.76
2023-05-07T03:36:32.642Z,92.26
2023-05-07T03:39:03.924Z,92.30
2023-05-07T03:41:35.287Z,91.62
2023-05-07T03:44:06.922Z,91.88
2023-05-07T03:46:38.805Z,91.94
2023-05-07T03:49:10.212Z,92.09
2023-05-07T03:51:41.509Z,91.88
2023-05-07T03:54:12.893Z,91.77
2023-05-07T03:56:44.223Z,92.07
2023-05-07T03:59:15.659Z,91.96
2023-05-07T04:01:47.125Z,91.56
2023-05-07T04:04:18.540Z,91.87
2023-05-07T04:06:50.077Z,91.89
2023-05-07T04:09:21.498Z,91.28
2023-05-07T04:11:52.777Z,91.78
2023-05-07T04:14:24.059Z,91.48
2023-05-07T04:16:55.594Z,91.82
2023-05-07T04:19:26.977Z,91.60
2023-05-07T04:21:58.247Z,91.78
2023-05-07T04:24:33.921Z,91.56
2023-05-07T04:27:05.365Z,91.70
2023-05-07T04:29:36.716Z,90.98
2023-05-07T04:32:08.035Z,91.39
2023-05-07T04:34:39.329Z,91.46
2023-05-07T04:37:10.905Z,91.31
2023-05-07T04:39:42.165Z,91.09
2023-05-07T04:42:17.296Z,91.35
2023-05-07T04:44:48.556Z,91.52
2023-05-07T04:47:19.829Z,91.41
2023-05-07T04:49:51.106Z,91.38
2023-05-07T04:52:22.423Z,91.40
2023-05-07T04:54:53.759Z,91.39
2023-05-07T04:57:25.030Z,91.10
2023-05-07T04:59:56.316Z,90.95
2023-05-07T05:02:27.744Z,90.64
2023-05-07T05:05:00.019Z,91.04
2023-05-07T05:07:31.323Z,91.19
2023-05-07T05:10:04.029Z,90.68
2023-05-07T05:12:35.434Z,91.00
2023-05-07T05:15:07.475Z,90.71
2023-05-07T05:17:38.949Z,91.01
2023-05-07T05:20:11.977Z,91.00
2023-05-07T05:22:43.613Z,90.58
2023-05-07T05:25:14.948Z,90.45
2023-05-07T05:27:46.369Z,90.67
2023-05-07T05:30:17.678Z,90.63
2023-05-07T05:32:49.067Z,90.70
2023-05-07T05:35:20.374Z,90.38
2023-05-07T05:37:51.709Z,90.41
2023-05-07T05:40:23.005Z,90.23
2023-05-07T05:42:54.273Z,90.04
2023-05-07T05:45:25.672Z,90.60
2023-05-07T05:47:57.680Z,90.25
2023-05-07T05:50:29.025Z,89.88
2023-05-07T05:53:00.618Z,90.00
2023-05-07T05:55:33.364Z,90.01
2023-05-07T05:58:04.747Z,90.09
2023-05-07T06:00:36.170Z,90.15
2023-05-07T06:03:07.839Z,89.64
2023-05-07T06:05:39.165Z,90.14
2023-05-07T06:08:10.533Z,89.84
2023-05-07T06:10:42.083Z,89.93
2023-05-07T06:13:13.382Z,89.87
2023-05-07T06:15:44.779Z,89.29
2023-05-07T06:18:16.127Z,89.46
2023-05-07T06:20:47.485Z,89.74
2023-05-07T06:23:18.846Z,89.26
2023-05-07T06:25:53.612Z,89.23
2023-05-07T06:28:25.028Z,89.18
2023-05-07T06:30:56.496Z,89.31
2023-05-07T06:33:27.754Z,88.88
2023-05-07T06:35:59.016Z,89.15
2023-05-07T06:38:30.335Z,88.99
2023-05-07T06:41:01.614Z,88.71
2023-05-07T06:43:33.370Z,88.83
2023-05-07T06:46:04.775Z,88.83
2023-05-07T06:48:36.086Z,88.59
2023-05-07T06:51:07.401Z,88.46
2023-05-07T06:53:38.680Z,88.52
2023-05-07T06:56:09.967Z,88.22
2023-05-07T06:58:41.336Z,87.98
2023-05-07T07:01:12.641Z,88.00
2023-05-07T07:03:43.919Z,87.72
2023-05-07T07:06:15.644Z,87.43
2023-05-07T07:08:47.011Z,87.32
2023-05-07T07:11:18.292Z,87.52
2023-05-07T07:13:49.561Z,87.48
2023-05-07T07:16:22.274Z,86.64
2023-05-07T07:18:53.576Z,87.11
2023-05-07T07:21:24.897Z,87.34
2023-05-07T07:23:56.260Z,86.73
2023-05-07T07:26:27.616Z,86.75
2023-05-07T07:28:58.879Z,86.35
2023-05-07T07:31:30.436Z,86.30
2023-05-07T07:34:01.723Z,85.98
2023-05-07T07:36:42.822Z,85.93
2023-05-07T07:39:16.886Z,85.96
2023-05-07T07:41:48.260Z,85.69
2023-05-07T07:44:19.616Z,85.47
2023-05-07T07:46:51.648Z,85.20
2023-05-07T07:49:23.056Z,85.14
2023-05-07T07:51:54.466Z,85.28
2023-05-07T07:54:26.019Z,85.09
2023-05-07T07:56:57.853Z,85.07
2023-05-07T07:59:29.145Z,84.78
2023-05-07T08:02:00.641Z,85.11
2023-05-07T08:04:33.991Z,84.47
2023-05-07T08:07:05.636Z,84.26
2023-05-07T08:09:38.259Z,84.20
2023-05-07T08:12:09.641Z,84.13
2023-05-07T08:14:41.430Z,84.29
2023-05-07T08:17:13.176Z,83.96
2023-05-07T08:19:44.576Z,83.92
2023-05-07T08:22:16.509Z,83.98
2023-05-07T08:24:47.827Z,83.60
2023-05-07T08:27:19.112Z,83.20
2023-05-07T08:29:50.820Z,83.06
2023-05-07T08:32:22.406Z,82.90
2023-05-07T08:34:53.871Z,82.67
2023-05-07T08:37:25.171Z,82.87
2023-05-07T08:39:56.587Z,82.43
2023-05-07T08:42:29.412Z,82.02
2023-05-07T08:45:00.994Z,82.03
2023-05-07T08:47:39.939Z,82.25
2023-05-07T08:50:12.629Z,81.76
2023-05-07T08:52:44.181Z,81.57
2023-05-07T08:55:16.074Z,80.96
2023-05-07T08:57:48.851Z,80.68
2023-05-07T09:00:20.583Z,80.69
2023-05-07T09:02:53.701Z,80.35
2023-05-07T09:05:25.046Z,80.05
2023-05-07T09:07:58.333Z,80.35
2023-05-07T09:10:30.751Z,80.05
2023-05-07T09:13:03.958Z,79.83
2023-05-07T09:15:35.420Z,79.69
2023-05-07T09:18:06.766Z,79.50
2023-05-07T09:20:39.072Z,79.12
2023-05-07T09:23:10.537Z,79.04
2023-05-07T09:25:41.902Z,78.99
2023-05-07T09:28:13.199Z,78.70
2023-05-07T09:30:45.582Z,78.37
2023-05-07T09:33:16.909Z,78.70
2023-05-07T09:35:52.264Z,78.05
2023-05-07T09:38:23.828Z,78.17
2023-05-07T09:41:15.380Z,76.37
2023-05-07T09:43:46.699Z,77.47
2023-05-07T09:46:21.265Z,76.89
2023-05-07T09:48:58.609Z,76.54
2023-05-07T09:51:34.930Z,76.00
2023-05-07T09:54:07.605Z,75.84
2023-05-07T09:56:42.537Z,75.80
2023-05-07T09:59:16.443Z,75.80
2023-05-07T10:01:47.862Z,75.47
2023-05-07T10:04:20.720Z,75.11
2023-05-07T10:06:52.312Z,74.71
2023-05-07T10:09:23.985Z,74.71
2023-05-07T10:11:55.895Z,74.61
2023-05-07T10:14:28.940Z,74.66
2023-05-07T10:17:00.590Z,74.59
2023-05-07T10:19:34.000Z,73.77
2023-05-07T10:22:07.242Z,73.98
2023-05-07T10:24:38.904Z,73.97
2023-05-07T10:27:13.329Z,73.67
2023-05-07T10:29:51.081Z,73.37
2023-05-07T10:32:40.935Z,72.72
2023-05-07T10:35:21.241Z,73.10
2023-05-07T10:37:53.125Z,73.34
2023-05-07T10:40:24.745Z,72.95
2023-05-07T10:42:57.163Z,73.16
2023-05-07T10:45:29.684Z,73.04
2023-05-07T10:50:50.051Z,73.00
2023-05-07T10:53:25.035Z,72.84
2023-05-07T10:56:18.329Z,71.54
2023-05-07T10:58:49.676Z,71.99
2023-05-07T11:02:12.178Z,71.17
2023-05-07T11:04:43.829Z,72.67
2023-05-07T11:07:29.462Z,71.60
2023-05-07T11:10:04.739Z,72.09
2023-05-07T11:12:39.152Z,71.83
2023-05-07T11:15:12.926Z,71.58
2023-05-07T11:17:55.058Z,70.44
2023-05-07T11:20:52.753Z,69.44
2023-05-07T11:23:33.046Z,69.65
2023-05-07T11:26:06.816Z,70.22
2023-05-07T11:28:40.611Z,69.95
2023-05-07T11:31:12.535Z,69.40
2023-05-07T11:33:45.405Z,68.75
2023-05-07T11:36:16.825Z,68.43
2023-05-07T11:38:48.385Z,68.32
2023-05-07T11:41:22.003Z,68.42
2023-05-07T11:43:58.006Z,68.06
2023-05-07T11:46:30.561Z,68.53
2023-05-07T11:49:02.293Z,69.48
2023-05-07T11:51:33.635Z,69.46
2023-05-07T11:54:09.531Z,68.65
2023-05-07T11:56:40.871Z,68.55
2023-05-07T11:59:12.299Z,68.52
2023-05-07T12:01:46.694Z,67.37
2023-05-07T12:04:21.956Z,67.07
2023-05-07T12:06:59.563Z,67.53
2023-05-07T12:09:33.739Z,67.33
2023-05-07T12:12:05.667Z,67.81
2023-05-07T12:14:41.073Z,66.98
2023-05-07T12:17:14.470Z,67.21
2023-05-07T12:19:46.935Z,66.29
2023-05-07T12:22:18.868Z,66.32
2023-05-07T12:24:57.337Z,66.35
2023-05-07T12:27:28.788Z,66.38
2023-05-07T12:30:00.351Z,66.42
2023-05-07T12:32:31.867Z,66.21
2023-05-07T12:35:03.352Z,66.22
2023-05-07T12:37:36.696Z,66.14
2023-05-07T12:40:12.222Z,65.73
2023-05-07T12:42:45.203Z,66.54
2023-05-07T12:45:17.614Z,66.38
2023-05-07T12:47:49.292Z,66.03
2023-05-07T12:50:21.965Z,66.37
2023-05-07T12:52:53.288Z,66.16
2023-05-07T12:55:24.619Z,66.42
2023-05-07T12:57:58.248Z,66.08
2023-05-07T13:00:39.570Z,65.38
2023-05-07T13:03:11.888Z,65.43
2023-05-07T13:05:43.316Z,65.62
2023-05-07T13:08:24.531Z,64.89
2023-05-07T13:10:56.047Z,65.62
2023-05-07T13:13:28.426Z,65.33
2023-05-07T13:16:06.368Z,65.04
2023-05-07T13:18:40.325Z,64.45
2023-05-07T13:21:13.959Z,64.72
2023-05-07T13:23:45.277Z,64.35
2023-05-07T13:26:26.377Z,64.10
2023-05-07T13:28:58.503Z,64.87
2023-05-07T13:31:29.805Z,64.46
2023-05-07T13:34:01.155Z,64.59
2023-05-07T13:36:36.301Z,64.79
2023-05-07T13:39:07.603Z,64.62
2023-05-07T13:41:38.959Z,64.01
2023-05-07T13:44:10.799Z,64.10
2023-05-07T13:46:42.105Z,64.35
2023-05-07T13:49:13.858Z,64.13
2023-05-07T13:51:45.194Z,64.31
2023-05-07T13:54:16.843Z,64.02
2023-05-07T13:56:48.388Z,63.71
2023-05-07T13:59:19.739Z,63.81
2023-05-07T14:01:51.122Z,63.68
2023-05-07T14:04:22.657Z,63.77
2023-05-07T14:06:53.970Z,63.37
2023-05-07T14:09:25.532Z,63.29
2023-05-07T14:11:56.809Z,63.13
2023-05-07T14:14:28.576Z,62.67
2023-05-07T14:16:59.933Z,62.78
2023-05-07T14:19:31.477Z,62.41
2023-05-07T14:22:03.407Z,62.70
2023-05-07T14:24:38.747Z,62.50
2023-05-07T14:27:10.400Z,62.79
2023-05-07T14:29:41.981Z,63.27
2023-05-07T14:32:13.632Z,62.90
2023-05-07T14:34:46.154Z,62.97
2023-05-07T14:37:17.475Z,62.87
2023-05-07T14:39:50.546Z,62.72
2023-05-07T14:42:22.358Z,62.99
2023-05-07T14:44:54.002Z,63.05
2023-05-07T14:47:25.571Z,62.70
2023-05-07T14:49:58.257Z,62.54
2023-05-07T14:52:29.550Z,62.41
2023-05-07T14:55:01.186Z,62.72
2023-05-07T14:57:35.738Z,62.61
2023-05-07T15:00:08.030Z,62.81
2023-05-07T15:02:39.654Z,62.08
2023-05-07T15:05:11.338Z,62.18
2023-05-07T15:07:42.842Z,62.33
2023-05-07T15:10:14.249Z,62.18
2023-05-07T15:12:45.549Z,61.84
2023-05-07T15:15:16.979Z,62.28
2023-05-07T15:17:48.320Z,61.67
2023-05-07T15:20:20.228Z,61.52
2023-05-07T15:22:51.529Z,61.47
2023-05-07T15:25:23.607Z,61.43
2023-05-07T15:27:54.885Z,60.46
2023-05-07T15:30:26.356Z,60.41
2023-05-07T15:32:57.870Z,59.93
2023-05-07T15:35:29.437Z,59.59
2023-05-07T15:38:00.757Z,59.31
2023-05-07T15:40:32.311Z,59.23
2023-05-07T15:43:03.735Z,59.00
2023-05-07T15:45:41.186Z,58.75
2023-05-07T15:48:12.737Z,59.23
2023-05-07T15:50:44.067Z,58.89
2023-05-07T15:53:15.566Z,58.35
2023-05-07T15:55:49.533Z,58.44
2023-05-07T15:58:21.139Z,58.78
2023-05-07T16:00:53.584Z,58.38
2023-05-07T16:03:24.954Z,58.80
2023-05-07T16:06:00.912Z,59.07
2023-05-07T16:08:33.565Z,59.02
2023-05-07T16:11:04.897Z,59.99
2023-05-07T16:13:36.973Z,59.86
2023-05-07T16:16:09.471Z,59.48
2023-05-07T16:18:40.936Z,59.91
2023-05-07T16:21:12.860Z,59.79
2023-05-07T16:23:44.280Z,59.46
2023-05-07T16:26:15.826Z,59.70
2023-05-07T16:28:47.288Z,59.41
2023-05-07T16:31:19.346Z,59.93
2023-05-07T16:33:50.864Z,59.69
2023-05-07T16:36:22.870Z,60.07
2023-05-07T16:38:54.297Z,59.95
2023-05-07T16:41:26.057Z,60.08
2023-05-07T16:43:58.640Z,60.00
2023-05-07T16:46:30.242Z,60.17
2023-05-07T16:49:01.671Z,60.38
2023-05-07T16:51:36.093Z,60.13
2023-05-07T16:54:07.885Z,60.54
2023-05-07T16:56:39.506Z,60.23
2023-05-07T16:59:10.961Z,60.20
2023-05-07T17:01:42.774Z,60.24
2023-05-07T17:04:14.424Z,60.36
2023-05-07T17:06:46.028Z,60.65
2023-05-07T17:09:17.330Z,60.86
2023-05-07T17:11:48.735Z,60.96
2023-05-07T17:14:20.080Z,60.71
2023-05-07T17:16:51.487Z,61.11
2023-05-07T17:19:23.129Z,61.38
2023-05-07T17:21:56.627Z,61.08
2023-05-07T17:24:27.953Z,61.29
2023-05-07T17:26:59.288Z,61.06
2023-05-07T17:29:30.904Z,61.53
2023-05-07T17:32:02.303Z,61.62
2023-05-07T17:34:33.747Z,61.68
2023-05-07T17:37:05.196Z,61.85
2023-05-07T17:39:36.585Z,61.96
2023-05-07T17:42:07.909Z,61.69
2023-05-07T17:44:41.947Z,61.95
2023-05-07T17:47:14.327Z,62.13
2023-05-07T17:49:45.684Z,62.07
2023-05-07T17:52:16.985Z,62.34
2023-05-07T17:54:48.259Z,62.42
2023-05-07T17:57:21.191Z,62.38
2023-05-07T17:59:52.549Z,62.58
2023-05-07T18:02:24.149Z,62.74
2023-05-07T18:04:55.559Z,63.00
2023-05-07T18:07:26.920Z,62.54
2023-05-07T18:09:58.201Z,63.23
2023-05-07T18:12:29.599Z,63.17
2023-05-07T18:15:01.020Z,63.40
2023-05-07T18:17:32.460Z,63.58
2023-05-07T18:20:09.026Z,63.52
2023-05-07T18:22:40.502Z,63.92
2023-05-07T18:25:12.154Z,64.11
2023-05-07T18:27:43.435Z,64.15
2023-05-07T18:30:15.003Z,64.39
2023-05-07T18:32:46.437Z,64.17
2023-05-07T18:35:17.850Z,64.61
2023-05-07T18:37:49.224Z,64.62
2023-05-07T18:40:21.842Z,64.86
2023-05-07T18:42:54.558Z,65.06
2023-05-07T18:45:27.188Z,65.42
2023-05-07T18:48:02.053Z,65.50
2023-05-07T18:50:37.970Z,65.28
2023-05-07T18:53:11.809Z,65.80
2023-05-07T18:55:46.246Z,66.05
2023-05-07T18:58:19.739Z,66.08
2023-05-07T19:00:51.408Z,66.35
2023-05-07T19:03:23.805Z,66.58
2023-05-07T19:05:55.800Z,66.50
2023-05-07T19:08:27.086Z,67.01
2023-05-07T19:10:58.737Z,67.10
2023-05-07T19:13:30.277Z,67.33
2023-05-07T19:16:01.808Z,67.35
2023-05-07T19:18:33.163Z,67.57
2023-05-07T19:21:04.448Z,67.84
2023-05-07T19:23:41.680Z,68.17
2023-05-07T19:26:13.086Z,68.32
2023-05-07T19:28:45.512Z,68.53
2023-05-07T19:31:21.535Z,68.61
2023-05-07T19:33:54.338Z,69.19
2023-05-07T19:36:26.241Z,69.23
2023-05-07T19:38:57.501Z,69.49
2023-05-07T19:41:29.010Z,69.66
2023-05-07T19:44:00.369Z,69.68
2023-05-07T19:46:31.855Z,69.98
2023-05-07T19:49:03.249Z,70.10
2023-05-07T19:51:34.511Z,70.22
2023-05-07T19:54:05.934Z,70.26
2023-05-07T19:56:37.498Z,70.20
2023-05-07T19:59:08.784Z,70.77
2023-05-07T20:01:40.263Z,70.90
2023-05-07T20:04:11.657Z,71.07
2023-05-07T20:06:42.918Z,71.38
2023-05-07T20:09:14.270Z,71.55
2023-05-07T20:11:45.560Z,71.63
2023-05-07T20:14:16.828Z,71.79
2023-05-07T20:16:48.176Z,72.13
2023-05-07T20:19:19.649Z,72.05
2023-05-07T20:21:51.318Z,72.05
2023-05-07T20:24:23.389Z,72.52
2023-05-07T20:26:54.727Z,72.38
2023-05-07T20:29:26.345Z,72.32
2023-05-07T20:31:57.690Z,72.67
2023-05-07T20:34:28.993Z,72.49
2023-05-07T20:37:00.350Z,72.67
2023-05-07T20:39:31.773Z,72.95
2023-05-07T20:42:03.207Z,72.90
2023-05-07T20:44:37.992Z,73.18
2023-05-07T20:47:09.543Z,73.08
2023-05-07T20:49:41.171Z,73.47
2023-05-07T20:52:12.433Z,73.36
2023-05-07T20:54:44.385Z,73.50
2023-05-07T20:57:16.521Z,73.80
2023-05-07T20:59:47.869Z,73.72
2023-05-07T21:02:19.288Z,73.76
2023-05-07T21:04:52.201Z,74.16
2023-05-07T21:07:23.496Z,74.14
2023-05-07T21:09:54.930Z,74.15
2023-05-07T21:12:26.210Z,74.32
2023-05-07T21:14:57.544Z,74.31
2023-05-07T21:17:31.554Z,74.41
2023-05-07T21:20:03.827Z,74.74
2023-05-07T21:22:35.370Z,75.02
2023-05-07T21:25:06.987Z,75.09
2023-05-07T21:27:38.347Z,74.84
2023-05-07T21:30:10.735Z,74.94
2023-05-07T21:32:42.383Z,75.26
2023-05-07T21:35:15.211Z,75.30
2023-05-07T21:37:46.586Z,75.09
2023-05-07T21:40:18.086Z,75.21
2023-05-07T21:42:49.383Z,75.51
2023-05-07T21:45:20.852Z,75.71
2023-05-07T21:47:52.264Z,75.67
2023-05-07T21:50:23.861Z,75.91
2023-05-07T21:52:55.233Z,76.23
2023-05-07T21:55:26.506Z,76.04
2023-05-07T21:58:04.918Z,76.62
2023-05-07T22:00:37.166Z,76.05
2023-05-07T22:03:08.531Z,76.84
2023-05-07T22:05:39.896Z,77.05
2023-05-07T22:08:11.432Z,76.56
2023-05-07T22:10:43.213Z,76.94
2023-05-07T22:13:14.539Z,76.86
2023-05-07T22:15:56.586Z,76.61
2023-05-07T22:18:29.007Z,77.15
2023-05-07T22:21:00.405Z,77.57
2023-05-07T22:23:31.747Z,77.69
2023-05-07T22:26:09.969Z,77.21
2023-05-07T22:28:41.334Z,77.97
2023-05-07T22:31:12.782Z,78.20
2023-05-07T22:33:44.223Z,77.87
2023-05-07T22:36:15.626Z,77.80
2023-05-07T22:38:46.927Z,77.71
2023-05-07T22:41:18.388Z,78.04
2023-05-07T22:43:49.647Z,77.36
2023-05-07T22:46:21.068Z,77.51
2023-05-07T22:48:52.422Z,78.04
2023-05-07T22:51:23.772Z,78.09
2023-05-07T22:53:55.083Z,77.92
2023-05-07T22:56:26.399Z,77.61
2023-05-07T22:58:57.723Z,78.01
2023-05-07T23:01:29.153Z,77.55
2023-05-07T23:04:00.498Z,77.75
2023-05-07T23:06:31.923Z,77.96
2023-05-07T23:09:04.058Z,77.75
2023-05-07T23:11:36.471Z,77.88
2023-05-07T23:14:08.293Z,77.67
2023-05-07T23:16:39.697Z,78.48
2023-05-07T23:19:11.565Z,77.75
2023-05-07T23:21:42.862Z,78.02
2023-05-07T23:24:14.178Z,77.99
2023-05-07T23:26:45.455Z,77.94
2023-05-07T23:29:16.815Z,78.22
2023-05-07T23:31:48.080Z,78.21
2023-05-07T23:34:23.732Z,78.58
2023-05-07T23:36:55.474Z,78.15
2023-05-07T23:39:26.742Z,78.16
2023-05-07T23:41:58.153Z,77.98
2023-05-07T23:44:29.503Z,78.02
2023-05-07T23:47:00.815Z,78.50
2023-05-07T23:49:32.120Z,78.17
2023-05-07T23:52:03.420Z,78.50
2023-05-07T23:54:34.793Z,78.06
2023-05-07T23:57:06.166Z,78.08
2023-05-07T23:59:37.425Z,78.07
